Terminal Aerodrome Forecast
Issued by NWS

Home | Current Version | Previous Version | Text Only | Print | Product List | Glossary On
Versions: 1 2 3 4 5 6 7 8 9 10 11 12
000
FTUS45 KPIH 250520
TAFSUN
TAF
KSUN 250520Z 2506/2606 31011KT P6SM SKC
     FM251900 15008KT P6SM VCSH SCT040 BKN060
     FM260400 33007KT P6SM VCSH BKN060
      AMD LTD TO CLD VIS AND WIND TIL 251300=

USA.gov is the U.S. government's official web portal to all federal, state and local government web resources and services.